Mykola Marlos

Scout - Dynamo Kyiv
29 Mai 2029
Dienstag
Verarbeitung

Persönlichkeit

Anpassungsfähigkeit (10) Ehrgeiz (11) Kontroverse (20) Loyalität (8) Druck (4) Professionalität (7) Fairness (12) Temperament (19)

Profil

Trainerstil Demokratisch
Lizenz Nationale B
Entschlossenheit 6
Menschenführung 13
Motivation 8
Disziplin 7
Arbeitszufriedenheit
100%
Ermüdung
0%
Rolle Scout
Gehalt 56.3K p/W
Vertrag 14.03.2030

Leistung

Verhalten Gut
Trainingseffektivität
52%
Spielerentwicklung
35%
Verletzungsprävention
35%
Taktische Umsetzung
45%

Letzte Ereignisse

Geburtstag 21T her

Aktuell beobachtet

151
Spieler Verein Status Fähigkeit Vertrauen Beobachtet Zuletzt beobachtet Letzte Stimme
Kaion Lisbie Colchester United Aktiv 103 / 109 40% 2 22.02.2029 -
Ryan McAidoo Bristol City Aktiv 142 / 143 40% 3 22.02.2029 -
Miguel Figueiredo Benfica Aktiv 111 / 134 40% 2 19.02.2029 -
Sayfiddin Sodikov Andijon Aktiv 79 / 87 40% 1 19.02.2029 -
Owen Foye Swindon Town Aktiv 74 / 105 40% 1 19.02.2029 -
Harrison Bettoni Wigan Athletic Aktiv 115 / 107 40% 1 16.02.2029 -
Mousa Mignolet Vitesse Aktiv 88 / 123 40% 1 12.02.2029 -
Bogdan Popov Empoli Aktiv 120 / 141 40% 2 05.02.2029 -
Josmar Flamengo Verloren 96 / 106 40% 1 05.02.2029 -
Julian Hall Austin FC Aktiv 132 / 115 40% 1 04.02.2029 -
Román Tapia Najran Aktiv 79 / 87 40% 1 02.02.2029 -
Reiss Elliott-Parris Harrogate Town Aktiv 84 / 94 40% 1 02.02.2029 -
Ihor Krasnopir Polissia Aktiv 130 / 125 48% 1 31.01.2029 -
Ashraf Dahir Muranga Seal Aktiv 89 / 71 40% 1 30.01.2029 -
Harry Gray Leeds United Aktiv 116 / 124 40% 1 29.01.2029 -
Martín Jiménez Universidad de Concepcion Aktiv 98 / 108 40% 2 27.01.2029 -
Alfie Cresswell Chesterfield Aktiv 120 / 121 40% 1 27.01.2029 -
Tiago Gordillo San Miguel Aktiv 92 / 93 40% 1 27.01.2029 -
Lisandro Piñero Banfield Aktiv 116 / 119 40% 1 27.01.2029 -
Louis Page Hull City Aktiv 133 / 142 40% 1 25.01.2029 -
Mateo Sabalza Najran Aktiv 89 / 92 40% 1 25.01.2029 -
Joel Ezra Enyimba Aktiv 86 / 87 40% 1 23.08.2028 -
Agustín Medina River Plate Aktiv 131 / 132 40% 1 23.08.2028 -
Peter Amidu Acquah Asante Kotoko Aktiv 96 / 107 40% 3 17.08.2028 -
Ramiro Jara Racing Aktiv 100 / 86 40% 1 17.08.2028 -
Sunday Aniebet Enyimba Aktiv 103 / 97 40% 1 15.08.2028 -
Emiliano Zambrano Gimnasia y Esgrima Aktiv 103 / 96 40% 1 14.08.2028 -
Mpho Padime Berekum Chelsea Aktiv 90 / 103 40% 1 14.08.2028 -
Giammaria Fiorin Virtus Verona Aktiv 83 / 96 40% 1 10.08.2028 -
Gustavo Lozano Zamora Aktiv 87 / 93 40% 1 10.08.2028 -
Alphadjo Cissé Bologna Aktiv 146 / 147 40% 5 05.08.2028 -
Daniel Banjaqui Benfica Aktiv 124 / 127 40% 4 04.08.2028 -
Isaac England Shrewsbury Town Aktiv 90 / 110 40% 1 04.08.2028 -
Ronnie Harvey Colchester United Aktiv 106 / 116 40% 5 03.08.2028 -
Leo Pecover Rotherham United Aktiv 116 / 103 40% 1 03.08.2028 -
Gabriel Carvalho Al-Qadisiyah Aktiv 129 / 129 40% 7 02.08.2028 -
Owen Eames Milton Keynes Dons Aktiv 94 / 123 40% 4 01.08.2028 -
Niall McAndrew Tranmere Rovers Aktiv 75 / 98 40% 1 01.08.2028 -
Igor Tyjon Blackburn Rovers Aktiv 133 / 128 40% 4 27.07.2028 -
Jake Evans Huddersfield Town Aktiv 98 / 130 40% 3 25.07.2028 -
Dro RC Lens Aktiv 148 / 127 40% 4 23.07.2028 -
Trey Ogunsuyi Shrewsbury Town Aktiv 108 / 100 40% 4 21.07.2028 -
Jack Shorrock Port Vale Aktiv 121 / 108 40% 3 21.07.2028 -
Jorthy Mokio Ajax Aktiv 126 / 143 40% 3 12.07.2028 -
Romeo Akachukwu Northampton Town Aktiv 124 / 121 40% 2 11.07.2028 -
Louie Copley Accrington Stanley Aktiv 87 / 118 40% 2 07.07.2028 -
Cameron Wilson Tranmere Rovers Aktiv 65 / 87 40% 1 07.07.2028 -
Jan Bürger Burton Albion Aktiv 132 / 139 40% 1 05.07.2028 -
Sebastian Lodberg Pergolettese Aktiv 110 / 102 40% 1 04.07.2028 -
Mattia Mannini Juve Stabia Aktiv 130 / 135 40% 3 29.06.2028 -
George Birch Accrington Stanley Aktiv 81 / 67 40% 1 26.06.2028 -
Peter Itodo Metalist Aktiv 123 / 124 48% 1 20.06.2028 -
Oleksandr Nazarenko Polissia Aktiv 137 / 127 48% 1 14.06.2028 -
Rumarn Burrell Queens Park Rangers Aktiv 125 / 120 40% 1 21.02.2028 -
Maksym Zaderaka Metalist Aktiv 122 / 110 48% 1 30.01.2028 Beobachten
Aune Heggebø West Bromwich Albion Aktiv 136 / 146 40% 1 25.01.2028 -
Jesus Ferreira Seattle Sounders Aktiv 154 / 132 40% 1 07.09.2027 -
Gabriel Pirani San Diego Football Club Aktiv 131 / 121 40% 1 07.09.2027 -
Antonio Galeano Remo Stars Aktiv 134 / 117 40% 4 06.09.2027 -
Anders Dreyer San Diego Football Club Aktiv 149 / 141 40% 1 06.09.2027 -
Alexander Aravena Portland Timbers Aktiv 148 / 139 40% 1 03.09.2027 -
Emmanuel Sabbi Vancouver Whitecaps Aktiv 137 / 139 40% 3 02.09.2027 -
Telasco Segovia Inter Miami CF Aktiv 133 / 119 40% 1 02.09.2027 -
Martín Ojeda Orlando City Aktiv 143 / 146 40% 3 31.08.2027 -
Antony Portland Timbers Aktiv 120 / 133 40% 1 31.08.2027 -
Facundo Torres Austin FC Aktiv 142 / 146 40% 1 30.08.2027 -
Franco Díaz Temperley Aktiv 111 / 127 40% 1 30.08.2027 -
Leandro Andrade Newell's Old Boys Aktiv 146 / 119 40% 2 29.08.2027 -
Tadeo Allende Inter Miami CF Aktiv 140 / 138 40% 1 22.08.2027 -
Quinn Sullivan Philadelphia Union Aktiv 131 / 136 40% 1 21.08.2027 -
Dany Mota Monza Aktiv 155 / 123 40% 3 19.08.2027 -
Simone Mazzocchi Cosenza Aktiv 121 / 119 40% 2 19.08.2027 -
Facundo Ardiles Audace Cerignola Aktiv 121 / 109 40% 1 18.08.2027 -
Keinan Davis Udinese Aktiv 154 / 132 40% 2 14.08.2027 -
Stiven Shpendi Empoli Aktiv 108 / 140 40% 4 13.08.2027 -
Giacomo Olzer Pescara Aktiv 118 / 115 40% 1 11.08.2027 -
Samuele Angori Pisa Aktiv 133 / 142 40% 1 10.08.2027 -
Davis Keillor-Dunn Wrexham Aktiv 110 / 109 40% 4 08.08.2027 -
Finn Azaz Southampton Aktiv 129 / 128 40% 2 08.08.2027 -
Tommy Conway Middlesbrough Aktiv 116 / 127 40% 1 08.08.2027 -
Alex Robertson Cardiff City Aktiv 114 / 132 40% 2 05.08.2027 -
Malik Mothersille Stockport County Aktiv 134 / 116 40% 1 02.08.2027 -
Callum O'Hare Sheffield United Aktiv 115 / 122 40% 1 01.08.2027 -
Sonny Carey Charlton Athletic Aktiv 132 / 121 40% 1 29.07.2027 -
Isaac Price West Bromwich Albion Aktiv 151 / 119 40% 1 28.07.2027 -
Oladapo Afolayan Blackburn Rovers Aktiv 135 / 109 40% 1 28.07.2027 -
Tammer Kumar West Bromwich Albion Aktiv 119 / 121 40% 1 27.07.2027 -
Mathias Kvistgaarden Norwich City Aktiv 111 / 142 40% 1 27.07.2027 -
Andre Brooks Sheffield United Aktiv 126 / 131 40% 1 27.07.2027 -
Idrissa Touré Monza Aktiv 142 / 140 40% 1 26.07.2027 -
Ross McCrorie Bristol City Aktiv 120 / 118 40% 2 20.07.2027 -
Shandon Baptiste Luton Town Aktiv 112 / 119 40% 1 20.07.2027 -
Max Conway Bolton Wanderers Aktiv 120 / 105 40% 2 19.07.2027 -
Adam Phillips Gillingham Aktiv 99 / 97 40% 1 19.07.2027 -
Mirko Antonucci Cittadella Aktiv 140 / 129 40% 2 18.07.2027 -
Moussa Yeo Swansea City Aktiv 127 / 106 40% 1 18.07.2027 -
Luca Moro Padova Aktiv 121 / 111 40% 1 18.07.2027 -
Óscar Al-Diriyah Aktiv 141 / 112 40% 2 15.07.2027 -
Billy Mitchell Millwall Aktiv 143 / 113 40% 1 13.07.2027 -
George Earthy Reading Aktiv 132 / 116 40% 1 12.07.2027 -
Cameron Pring Bristol City Aktiv 127 / 144 40% 2 09.07.2027 -
Bae Jun-Ho Stoke City Aktiv 114 / 127 40% 1 05.07.2027 -
Armstrong Oko-Flex Levski Aktiv 122 / 116 40% 1 30.06.2027 -
Ion Nicolăescu Maccabi Tel Aviv Aktiv 110 / 130 40% 1 30.06.2027 -
Brandon Vázquez Austin FC Aktiv 113 / 106 40% 1 28.06.2027 -
Daniel Paraschiv Bnei Sakhnin Aktiv 135 / 117 40% 1 28.06.2027 -
Billal Messaoudi JS Kabylie Aktiv 105 / 110 40% 1 26.06.2027 -
Jon Magunazelaia Eibar Aktiv 110 / 116 40% 1 25.06.2027 -
Luca Maiorano Pro Patria Aktiv 119 / 100 40% 1 25.06.2027 -
Thierry Small Preston Aktiv 129 / 113 40% 1 23.06.2027 -
Giuseppe Di Serio Spezia Aktiv 105 / 128 40% 1 22.06.2027 -
Akinkunmi Amoo Bloemfontein Celtic Aktiv 107 / 106 40% 1 22.06.2027 -
Idris El Mizouni Leyton Orient Aktiv 106 / 123 40% 1 21.06.2027 -
Matteo Rover Reggiana Aktiv 113 / 110 40% 1 20.06.2027 -
Marc Bola Watford Aktiv 107 / 117 40% 1 18.06.2027 -
Myles Peart-Harris Wycombe Wanderers Aktiv 111 / 113 40% 1 16.06.2027 -
Artur Rudko Aktiv 98 / 111 48% 1 14.06.2027 -
Yehor Tverdokhlib LNZ Aktiv 116 / 120 40% 3 23.02.2027 -
Jérémy Le Douaron Palermo Aktiv 114 / 134 40% 1 23.02.2027 -
Amir Hossein Hosseinzadeh Tractor Aktiv 140 / 133 40% 5 21.02.2027 -
Oumar Camara Vitoria Guimaraes Aktiv 139 / 125 40% 2 21.02.2027 -
Renato Júnior Al Wasl Aktiv 121 / 111 40% 2 20.02.2027 -
Tshepang Moremi Orlando Pirates Aktiv 115 / 116 40% 1 18.02.2027 -
Sipho Mbule Bidvest Wits Aktiv 119 / 101 40% 1 15.02.2027 -
Aljoša Matko Ujpest Aktiv 113 / 113 40% 2 13.02.2027 -
Andrea Zaccagno Torres Aktiv 110 / 113 40% 1 11.02.2027 -
Fedor Lapoukhov CSKA Sofia Aktiv 107 / 119 40% 1 10.02.2027 -
Riccardo Gagno Vicenza Aktiv 105 / 128 40% 1 10.02.2027 -
Lindon Emërllahu Polissia Aktiv 110 / 122 40% 2 08.02.2027 -
Lukas Jensen Millwall Aktiv 131 / 123 40% 1 06.02.2027 -
Rayan Kolli Queens Park Rangers Aktiv 95 / 114 40% 1 04.02.2027 -
Bento Al-Nassr Aktiv 151 / 118 40% 1 01.02.2027 -
Luke Baartman Bidvest Wits Aktiv 118 / 93 40% 1 31.01.2027 -
Bohdan Boichuk Bukovyna Aktiv 114 / 98 48% 1 30.01.2027 -
Fred Onyedinma Burton Albion Aktiv 104 / 124 40% 1 29.01.2027 -
Leandro Antunes Al-Riyadh Aktiv 102 / 119 40% 1 27.01.2027 -
Will Fish Cardiff City Aktiv 116 / 130 40% 1 26.01.2027 -
Teboho Mokoena Mamelodi Sundowns Aktiv 151 / 119 40% 1 26.01.2027 -
Thomas Waddingham Portsmouth Aktiv 102 / 128 40% 1 26.01.2027 -
Edmund Baidoo Red Bull Salzburg Aktiv 103 / 114 40% 1 07.09.2026 -
Jahkeele Marshall-Rutty New York Red Bulls Aktiv 98 / 129 40% 1 27.08.2026 -
Mathías Laborda Vancouver Whitecaps Aktiv 114 / 119 40% 1 26.08.2026 -
Evander FC Cincinnati Aktiv 117 / 147 40% 1 25.08.2026 -
Nicolás Romero Minnesota United FC Aktiv 115 / 134 40% 1 24.08.2026 -
Miguel Navarro Colorado Rapids Aktiv 132 / 128 40% 1 24.08.2026 -
Konstantinos Stamoulis Veres Aktiv 104 / 97 48% 1 10.08.2026 -
Wessam Abou Ali Columbus Crew Aktiv 126 / 135 40% 1 10.08.2026 -
Luca De La Torre Charlotte Football Club Aktiv 140 / 114 40% 1 03.08.2026 -
Pep Biel Charlotte Football Club Aktiv 120 / 111 40% 1 03.08.2026 -
Arnau Martínez Valencia Aktiv 137 / 131 40% 1 01.08.2026 -
Omar El Hilali Espanyol Aktiv 156 / 157 40% 1 01.08.2026 -